Time;durP1;ratioP1;P1;durP2;ratioP2;P2;SDS_P1;SDS_P2;PMS_P1;PMS_P2;Temp;Humidity;BMP_temperature;BMP_pressure;BME280_temperature;BME280_humidity;BME280_pressure;Samples;Min_cycle;Max_cycle;Signal;HPM_P1;HPM_P2
2022/01/02 00:01:09;;;;;;;59.97;33.28;;;281.80;2278.40;;;;;;4788366;29;20041;-88
2022/01/02 00:03:59;;;;;;;48.95;31.95;;;281.90;2278.40;;;;;;4777677;29;20134;-86
2022/01/02 00:16:40;;;;;;;182.27;123.10;;;256.90;2252.80;;;;;;4880974;29;20061;-88
2022/01/02 00:20:17;;;;;;;129.38;82.72;;;256.80;2252.80;;;;;;4878232;29;20472;-86
2022/01/02 00:24:10;;;;;;;118.80;78.25;;;256.70;2252.80;;;;;;4819308;29;20034;-89
2022/01/02 00:35:01;;;;;;;205.80;135.48;;;256.40;2252.80;;;;;;4666406;30;20522;-90
2022/01/02 01:14:50;;;;;;;85.22;38.42;;;256.70;2252.80;;;;;;4808818;29;20552;-88
2022/01/02 01:21:54;;;;;;;67.78;29.50;;;256.80;2252.80;;;;;;4910928;29;20031;-88
2022/01/02 01:29:17;;;;;;;65.70;33.95;;;256.90;2252.80;;;;;;4860875;29;20089;-89
2022/01/02 01:33:00;;;;;;;65.80;32.92;;;256.90;2252.80;;;;;;4824134;29;20058;-88
2022/01/02 01:36:48;;;;;;;44.97;25.25;;;256.90;2252.80;;;;;;4752344;30;20556;-90
2022/01/02 01:40:18;;;;;;;83.72;40.90;;;256.90;2252.80;;;;;;4758569;29;20024;-90
2022/01/02 01:47:01;;;;;;;28.50;15.82;;;281.60;2278.40;;;;;;4811223;29;20113;-90
2022/01/02 01:50:32;;;;;;;23.00;12.95;;;281.70;2278.40;;;;;;4779139;30;20027;-88
2022/01/02 01:54:13;;;;;;;19.98;12.70;;;281.70;2278.40;;;;;;4734222;30;20111;-90
2022/01/02 02:01:16;;;;;;;20.48;13.88;;;281.80;2278.40;;;;;;4787515;29;20138;-89
2022/01/02 02:08:30;;;;;;;16.95;11.27;;;281.90;2278.40;;;;;;4733979;30;20451;-89
2022/01/02 02:12:01;;;;;;;45.45;23.10;;;281.90;2278.40;;;;;;4681852;30;20113;-90
2022/01/02 02:16:02;;;;;;;22.45;11.50;;;281.90;2278.40;;;;;;4646566;30;20421;-87
2022/01/02 02:19:32;;;;;;;37.40;21.02;;;282.00;2278.40;;;;;;4612541;31;20070;-86
2022/01/02 02:30:13;;;;;;;19.92;13.18;;;281.90;2278.40;;;;;;4688064;30;20640;-88
2022/01/02 02:37:21;;;;;;;12.02;8.18;;;281.90;2278.40;;;;;;4696208;30;20068;-89
2022/01/02 02:58:49;;;;;;;15.05;10.95;;;281.70;2278.40;;;;;;4635574;30;20101;-88
2022/01/02 03:16:43;;;;;;;48.58;31.17;;;256.40;2252.80;;;;;;4564287;31;20416;-89
2022/01/02 03:20:15;;;;;;;50.63;32.42;;;256.30;2252.80;;;;;;4610497;31;20080;-88
2022/01/02 03:31:12;;;;;;;;;;;;;;;;;;;;;
2022/01/02 03:36:44;;;;;;;170.02;69.10;;;256.30;2252.80;;;;;;4580239;27;16142493;-88
2022/01/02 03:39:59;;;;;;;124.78;52.15;;;256.30;2252.80;;;;;;5124266;28;20486;-90
2022/01/02 03:43:26;;;;;;;49.00;24.13;;;256.30;2252.80;;;;;;5068323;28;20052;-88
2022/01/02 03:46:49;;;;;;;30.75;16.13;;;256.30;2252.80;;;;;;5084575;28;20027;-87
2022/01/02 03:49:28;;;;;;;34.58;16.55;;;256.20;2252.80;;;;;;5072991;28;20109;-89
2022/01/02 03:56:19;;;;;;;;;;;256.20;2252.80;;;;;;5029695;28;20091;-88
2022/01/02 04:00:09;;;;;;;71.57;46.60;;;256.00;2252.80;;;;;;5018829;28;19909;-87
2022/01/02 04:03:08;;;;;;;127.00;71.17;;;231.30;2252.80;;;;;;4957386;28;20026;-89
2022/01/02 04:06:42;;;;;;;124.03;66.57;;;231.30;2022.40;;;;;;4913149;29;20366;-87
2022/01/02 04:10:09;;;;;;;113.68;60.75;;;231.20;2252.80;;;;;;4907154;29;20064;-88
2022/01/02 04:13:23;;;;;;;105.65;51.88;;;231.20;1971.20;;;;;;4874524;29;20045;-88
2022/01/02 04:16:31;;;;;;;59.83;31.05;;;231.10;2252.80;;;;;;4878423;29;20041;-88
2022/01/02 04:23:55;;;;;;;47.10;22.20;;;231.20;2022.40;;;;;;4894274;29;20036;-91
2022/01/02 04:27:38;;;;;;;27.60;15.73;;;231.30;2252.80;;;;;;4876674;29;20037;-87
2022/01/02 04:34:39;;;;;;;19.13;11.20;;;256.30;2252.80;;;;;;4783741;30;20038;-88
2022/01/02 04:40:53;;;;;;;51.10;34.28;;;256.70;2252.80;;;;;;5169115;27;20121;-87
2022/01/02 04:52:11;;;;;;;20.20;12.63;;;256.20;2252.80;;;;;;4914119;29;20048;-87
2022/01/02 04:59:09;;;;;;;102.07;66.80;;;256.10;2252.80;;;;;;4876731;29;20081;-87
2022/01/02 05:02:37;;;;;;;91.55;58.22;;;230.90;2252.80;;;;;;4877055;29;20875;-89
2022/01/02 05:09:51;;;;;;;97.45;66.03;;;230.50;2252.80;;;;;;4821148;29;20033;-89
2022/01/02 05:30:07;;;;;;;62.55;42.42;;;205.60;2252.80;;;;;;4860635;29;20028;-88
2022/01/02 05:33:38;;;;;;;68.60;51.05;;;205.60;2252.80;;;;;;4842320;29;20062;-89
2022/01/02 05:40:30;;;;;;;171.88;92.43;;;205.50;2252.80;;;;;;4715050;30;20529;-88
2022/01/02 06:18:48;;;;;;;172.35;105.63;;;205.10;2252.80;;;;;;4884202;29;20116;-87
2022/01/02 06:26:14;;;;;;;212.63;122.00;;;204.90;2252.80;;;;;;4931075;28;20030;-87
2022/01/02 06:29:32;;;;;;;146.05;95.57;;;205.00;2252.80;;;;;;4884284;29;20060;-87
2022/01/02 06:33:07;;;;;;;101.53;67.28;;;204.90;2252.80;;;;;;4846642;29;20090;-87
2022/01/02 06:47:28;;;;;;;152.00;107.28;;;204.80;2252.80;;;;;;4774104;30;20035;-87
2022/01/02 06:50:39;;;;;;;176.50;122.63;;;204.80;2252.80;;;;;;4759937;30;20044;-87
2022/01/02 07:30:37;;;;;;;140.07;100.38;;;205.30;2252.80;;;;;;4936877;29;20518;-87
2022/01/02 08:04:47;;;;;;;207.52;147.95;;;230.50;2252.80;;;;;;4940941;29;20091;-88
2022/01/02 08:12:11;;;;;;;171.05;123.25;;;230.60;2252.80;;;;;;4839198;29;20041;-89
2022/01/02 08:22:45;;;;;;;185.18;134.85;;;230.60;2252.80;;;;;;4841499;29;20076;-89
2022/01/02 08:26:23;;;;;;;183.48;137.27;;;230.70;2252.80;;;;;;4824385;29;20114;-88
2022/01/02 08:29:58;;;;;;;180.00;135.35;;;230.90;2252.80;;;;;;4805424;29;20041;-90
2022/01/02 08:33:44;;;;;;;171.93;132.05;;;231.00;1971.20;;;;;;4786059;29;20054;-90
2022/01/02 08:37:35;;;;;;;163.02;122.25;;;231.10;2252.80;;;;;;4717086;30;20025;-90
2022/01/02 08:41:05;;;;;;;155.95;117.10;;;231.20;2252.80;;;;;;4752354;30;20036;-88
2022/01/02 08:44:35;;;;;;;163.27;118.72;;;231.30;2252.80;;;;;;4786677;30;20030;-85
2022/01/02 08:48:04;;;;;;;171.85;127.72;;;256.00;2252.80;;;;;;4786326;29;20035;-88
2022/01/02 08:51:53;;;;;;;;;;;;;;;;;;;;;
2022/01/02 08:55:00;;;;;;;;;;;256.30;2252.80;;;;;;4751561;30;20029;-86
2022/01/02 08:58:51;;;;;;;207.23;142.35;;;256.40;2252.80;;;;;;4750928;30;19906;-87
2022/01/02 09:02:23;;;;;;;159.88;115.93;;;256.50;2252.80;;;;;;4733338;30;20039;-86
2022/01/02 09:05:42;;;;;;;151.25;115.22;;;256.50;2252.80;;;;;;4791230;29;20023;-87
2022/01/02 09:08:22;;;;;;;110.20;79.50;;;256.70;2252.80;;;;;;4766837;29;20043;-86
2022/01/02 09:11:51;;;;;;;83.00;60.08;;;256.80;2252.80;;;;;;4786860;30;20431;-88
2022/01/02 09:14:58;;;;;;;72.50;53.38;;;281.70;2278.40;;;;;;4803615;29;20041;-88
2022/01/02 09:32:41;;;;;;;68.53;51.92;;;282.50;2278.40;;;;;;4899405;29;20075;-88
2022/01/02 09:35:55;;;;;;;57.90;44.40;;;282.50;2278.40;;;;;;4890630;29;20036;-88
2022/01/02 09:38:59;;;;;;;47.33;37.65;;;307.30;2304.00;;;;;;4892350;29;20491;-87
2022/01/02 09:42:14;;;;;;;40.83;29.02;;;307.30;2304.00;;;;;;4919224;29;20543;-89
2022/01/02 09:44:56;;;;;;;37.03;30.10;;;307.40;2304.00;;;;;;4914983;29;20032;-90
2022/01/02 09:55:17;;;;;;;;;;;;;;;;;;;;;
2022/01/02 09:57:53;;;;;;;33.35;23.50;;;307.80;2304.00;;;;;;4940870;28;20082;-89
2022/01/02 10:00:36;;;;;;;;;;;;;;;;;;;;;
2022/01/02 10:03:55;;;;;;;;;;;;;;;;;;;;;
2022/01/02 10:07:06;;;;;;;27.83;20.73;;;308.00;2304.00;;;;;;5064940;28;20029;-90
2022/01/02 10:09:58;;;;;;;65.07;40.83;;;308.00;2304.00;;;;;;5053218;28;20438;-88
2022/01/02 10:15:55;;;;;;;34.05;25.65;;;332.90;2329.60;;;;;;5071049;28;20028;-86
2022/01/02 10:18:52;;;;;;;25.27;20.17;;;332.80;2329.60;;;;;;5091896;28;20076;-85
2022/01/02 10:22:19;;;;;;;26.13;20.58;;;332.80;2329.60;;;;;;5065405;28;20071;-85
2022/01/02 10:50:24;;;;;;;22.02;14.85;;;333.70;2329.60;;;;;;4753380;30;20105;-88
2022/01/02 10:53:53;;;;;;;39.85;24.00;;;358.40;2329.60;;;;;;4776401;30;20119;-89
2022/01/02 11:00:33;;;;;;;28.23;21.48;;;358.40;2329.60;;;;;;4818508;29;20042;-87
2022/01/02 11:03:38;;;;;;;23.65;19.65;;;358.50;2329.60;;;;;;4905792;29;20020;-87
2022/01/02 11:06:36;;;;;;;19.30;14.57;;;358.60;2329.60;;;;;;4898397;29;20035;-87
2022/01/02 11:09:46;;;;;;;29.98;20.30;;;358.90;2329.60;;;;;;4920398;29;20043;-88
2022/01/02 11:23:54;;;;;;;13.82;10.07;;;358.90;2329.60;;;;;;4955492;29;20038;-90
2022/01/02 11:30:22;;;;;;;;;;;;;;;;;;;;;
2022/01/02 11:33:08;;;;;;;43.50;33.08;;;384.10;2329.60;;;;;;4993079;28;20043;-86
2022/01/02 11:35:37;;;;;;;55.45;39.30;;;384.30;2329.60;;;;;;4975556;28;20125;-87
2022/01/02 11:38:04;;;;;;;35.22;25.10;;;384.50;2329.60;;;;;;5032849;28;20017;-86
2022/01/02 11:40:56;;;;;;;45.38;32.00;;;384.60;2329.60;;;;;;5066727;28;20020;-86
2022/01/02 11:43:49;;;;;;;43.85;31.38;;;384.90;2329.60;;;;;;5097151;28;20061;-86
2022/01/02 11:46:27;;;;;;;36.38;28.60;;;409.70;2355.20;;;;;;5114375;28;20020;-86
2022/01/02 11:49:08;;;;;;;22.98;18.33;;;409.90;2355.20;;;;;;5096516;28;20034;-86
2022/01/02 11:51:55;;;;;;;35.53;24.33;;;410.00;2355.20;;;;;;5114106;28;20015;-87
2022/01/02 11:54:39;;;;;;;22.75;18.05;;;410.20;2355.20;;;;;;5097127;28;20125;-86
2022/01/02 11:57:11;;;;;;;23.75;16.50;;;410.30;2355.20;;;;;;5113943;28;20015;-85
2022/01/02 11:59:40;;;;;;;21.90;18.30;;;410.50;2355.20;;;;;;5114022;28;20035;-86
2022/01/02 12:02:18;;;;;;;21.00;16.27;;;410.50;2355.20;;;;;;5113799;28;20077;-88
2022/01/02 12:04:59;;;;;;;30.25;24.42;;;435.40;2355.20;;;;;;5113930;28;20016;-85
2022/01/02 12:07:55;;;;;;;21.15;17.23;;;435.60;2355.20;;;;;;5113669;28;20023;-85
2022/01/02 12:10:31;;;;;;;16.67;14.68;;;435.60;2355.20;;;;;;5093651;28;20028;-88
2022/01/02 12:12:59;;;;;;;24.38;19.10;;;435.80;2355.20;;;;;;5106461;28;20027;-85
2022/01/02 12:15:31;;;;;;;27.42;22.63;;;436.00;2355.20;;;;;;5138621;28;20022;-85
2022/01/02 12:18:16;;;;;;;27.02;20.33;;;436.00;2355.20;;;;;;5117504;28;20110;-89
2022/01/02 12:20:56;;;;;;;18.30;14.80;;;435.90;2355.20;;;;;;5097277;28;20035;-85
2022/01/02 12:23:34;;;;;;;23.83;18.42;;;436.00;2355.20;;;;;;5114236;28;20098;-85
2022/01/02 12:26:21;;;;;;;23.42;18.73;;;436.00;2355.20;;;;;;5113692;28;20468;-84
2022/01/02 12:28:56;;;;;;;18.27;14.35;;;436.10;2355.20;;;;;;5095990;28;20036;-89
2022/01/02 12:31:40;;;;;;;18.45;14.43;;;436.10;2355.20;;;;;;5096719;28;20093;-86
2022/01/02 12:34:34;;;;;;;24.33;19.52;;;436.10;2355.20;;;;;;5096665;28;20039;-88
2022/01/02 12:37:00;;;;;;;20.52;15.23;;;436.10;2355.20;;;;;;5093980;28;20109;-84
2022/01/02 12:39:30;;;;;;;21.85;15.57;;;436.10;2355.20;;;;;;5096361;28;20462;-85
2022/01/02 12:42:18;;;;;;;21.33;15.43;;;436.10;2355.20;;;;;;5096385;28;20023;-86
2022/01/02 12:44:50;;;;;;;18.20;15.55;;;436.00;2355.20;;;;;;5096347;28;20026;-85
2022/01/02 12:47:32;;;;;;;;;;;435.90;2355.20;;;;;;5096653;28;20202;-84
2022/01/02 12:50:07;;;;;;;28.73;22.33;;;435.80;2355.20;;;;;;5095360;28;19945;-85
2022/01/02 12:52:33;;;;;;;30.30;23.60;;;435.80;2355.20;;;;;;5096626;28;20102;-82
2022/01/02 12:54:59;;;;;;;27.00;21.30;;;435.70;2355.20;;;;;;5096733;28;20458;-85
2022/01/02 12:57:26;;;;;;;22.38;17.73;;;435.60;2355.20;;;;;;5096259;28;20024;-87
2022/01/02 12:59:59;;;;;;;24.45;19.80;;;435.60;2355.20;;;;;;5097025;28;20447;-86
2022/01/02 13:02:30;;;;;;;20.25;15.45;;;435.50;2355.20;;;;;;5100319;28;20024;-83
2022/01/02 13:05:03;;;;;;;18.45;13.68;;;435.60;2355.20;;;;;;5100296;28;20497;-84
2022/01/02 13:07:31;;;;;;;;;;;435.60;2355.20;;;;;;5100506;28;20023;-82
2022/01/02 13:09:59;;;;;;;28.55;22.50;;;435.60;2355.20;;;;;;5100038;28;19995;-84
2022/01/02 13:12:31;;;;;;;24.65;19.17;;;435.60;2355.20;;;;;;5100290;28;20020;-83
2022/01/02 13:15:23;;;;;;;25.88;17.42;;;435.60;2355.20;;;;;;5100226;28;20051;-83
2022/01/02 13:17:59;;;;;;;20.50;16.52;;;435.60;2355.20;;;;;;5117891;28;20023;-83
2022/01/02 13:20:27;;;;;;;23.23;15.93;;;435.80;2355.20;;;;;;5100359;28;20028;-83
2022/01/02 13:22:54;;;;;;;24.27;18.73;;;435.80;2355.20;;;;;;5117244;28;20455;-84
2022/01/02 13:25:24;;;;;;;26.85;20.88;;;436.00;2355.20;;;;;;5117729;28;20068;-85
2022/01/02 13:27:54;;;;;;;26.13;20.08;;;436.00;2355.20;;;;;;5118029;28;20023;-84
2022/01/02 13:30:38;;;;;;;20.98;17.38;;;436.10;2355.20;;;;;;5116839;28;20023;-82
2022/01/02 13:33:19;;;;;;;27.80;20.88;;;436.10;2355.20;;;;;;5099408;28;20050;-83
2022/01/02 13:35:46;;;;;;;26.40;19.85;;;436.10;2355.20;;;;;;5099829;28;20114;-83
2022/01/02 13:38:12;;;;;;;23.15;17.83;;;436.10;2355.20;;;;;;5099712;28;20447;-82
2022/01/02 13:40:39;;;;;;;26.73;19.63;;;461.00;2380.80;;;;;;5099846;28;20042;-80
2022/01/02 13:43:22;;;;;;;21.90;16.00;;;435.80;2355.20;;;;;;5099402;28;20115;-82
2022/01/02 13:45:48;;;;;;;21.65;16.88;;;435.50;2355.20;;;;;;5099767;28;20340;-84
2022/01/02 13:48:16;;;;;;;27.58;19.08;;;435.30;2355.20;;;;;;5117791;28;20023;-83
2022/01/02 13:50:44;;;;;;;31.40;21.52;;;410.40;2355.20;;;;;;5099255;28;20106;-88
2022/01/02 13:53:21;;;;;;;27.63;17.92;;;410.30;2355.20;;;;;;5099522;28;20031;-83
2022/01/02 13:56:07;;;;;;;27.23;17.08;;;410.20;2355.20;;;;;;5099292;28;20028;-87
2022/01/02 13:58:47;;;;;;;30.02;20.50;;;410.20;2355.20;;;;;;5099613;28;20039;-82
2022/01/02 14:01:21;;;;;;;39.42;27.48;;;410.30;2355.20;;;;;;5099424;28;20019;-87
2022/01/02 14:03:47;;;;;;;40.40;29.08;;;410.40;2355.20;;;;;;5116373;28;20019;-88
2022/01/02 14:06:26;;;;;;;30.58;24.67;;;410.30;2355.20;;;;;;5099036;28;20020;-85
2022/01/02 14:08:53;;;;;;;30.13;24.25;;;410.30;2355.20;;;;;;5117420;28;20046;-85
2022/01/02 14:11:20;;;;;;;29.05;24.13;;;410.20;2355.20;;;;;;5098455;28;20020;-88
2022/01/02 14:13:50;;;;;;;40.10;30.13;;;410.00;2355.20;;;;;;5098828;28;20104;-87
2022/01/02 14:16:45;;;;;;;36.05;27.48;;;409.90;2355.20;;;;;;5099314;28;20016;-82
2022/01/02 14:19:05;;;;;;;32.20;24.17;;;409.70;2355.20;;;;;;5116274;28;20020;-86
2022/01/02 14:21:34;;;;;;;30.60;24.77;;;384.90;2329.60;;;;;;5098972;28;20026;-86
2022/01/02 14:24:04;;;;;;;33.28;26.77;;;384.60;2329.60;;;;;;5098525;28;20461;-87
2022/01/02 14:26:31;;;;;;;37.33;29.50;;;384.40;2329.60;;;;;;5098938;28;20028;-86
2022/01/02 14:28:58;;;;;;;41.42;32.35;;;384.30;2329.60;;;;;;5098723;28;20026;-88
2022/01/02 14:31:31;;;;;;;43.30;33.00;;;384.10;2329.60;;;;;;5098661;28;20016;-87
2022/01/02 14:33:58;;;;;;;46.95;36.65;;;384.00;2329.60;;;;;;5098465;28;20043;-87
2022/01/02 14:36:24;;;;;;;51.03;40.10;;;384.00;2329.60;;;;;;5098581;28;20015;-85
2022/01/02 14:38:50;;;;;;;50.75;38.33;;;384.00;2329.60;;;;;;5098120;28;20051;-85
2022/01/02 14:41:17;;;;;;;54.00;40.67;;;359.20;2329.60;;;;;;5098591;28;20062;-87
2022/01/02 14:43:48;;;;;;;66.82;48.92;;;359.10;2329.60;;;;;;5098686;28;20366;-86
2022/01/02 14:46:14;;;;;;;82.30;57.47;;;359.00;2329.60;;;;;;5098235;28;20024;-86
2022/01/02 14:48:41;;;;;;;97.03;63.15;;;358.90;2329.60;;;;;;5098749;28;20050;-85
2022/01/02 14:51:07;;;;;;;99.97;65.43;;;358.90;2329.60;;;;;;5098516;28;20485;-87
2022/01/02 14:53:36;;;;;;;87.13;63.45;;;358.80;2329.60;;;;;;5098092;28;20039;-84
2022/01/02 14:56:03;;;;;;;94.20;67.18;;;358.70;2329.60;;;;;;5098162;28;20020;-84
2022/01/02 14:58:32;;;;;;;89.40;64.07;;;358.60;2329.60;;;;;;5098246;28;20027;-85
2022/01/02 15:00:58;;;;;;;84.28;60.45;;;358.60;2329.60;;;;;;5097918;28;20024;-85
2022/01/02 15:03:24;;;;;;;87.20;55.88;;;358.50;2329.60;;;;;;5098119;28;20076;-85
2022/01/02 15:05:53;;;;;;;82.47;55.67;;;358.50;2329.60;;;;;;5098065;28;20340;-86
2022/01/02 15:09:01;;;;;;;98.93;65.60;;;358.40;2329.60;;;;;;5097711;28;20016;-84
2022/01/02 15:11:55;;;;;;;119.57;71.78;;;333.70;2329.60;;;;;;5033046;28;20030;-87
2022/01/02 15:14:21;;;;;;;98.63;66.97;;;333.60;2329.60;;;;;;5031258;28;20592;-85
2022/01/02 15:16:49;;;;;;;97.88;64.35;;;333.40;2329.60;;;;;;5016765;28;20447;-85
2022/01/02 15:19:19;;;;;;;97.22;68.57;;;333.30;2329.60;;;;;;5016589;28;20026;-84
2022/01/02 15:22:35;;;;;;;194.38;108.03;;;333.30;2329.60;;;;;;5035922;28;20053;-87
2022/01/02 15:24:59;;;;;;;195.18;111.50;;;333.20;2329.60;;;;;;5113680;28;20504;-86
2022/01/02 15:27:25;;;;;;;244.77;158.40;;;333.10;2329.60;;;;;;5097327;28;20020;-86
2022/01/02 15:29:57;;;;;;;150.57;100.75;;;333.00;2329.60;;;;;;5097307;28;20020;-85
2022/01/02 15:33:01;;;;;;;158.15;103.90;;;332.80;2329.60;;;;;;5097160;28;20046;-84
2022/01/02 15:52:31;;;;;;;156.32;98.80;;;307.80;2304.00;;;;;;5115566;28;20456;-87
2022/01/02 15:54:57;;;;;;;380.38;213.70;;;307.70;2304.00;;;;;;5096353;28;20099;-85
2022/01/02 15:57:23;;;;;;;498.65;294.20;;;307.60;2304.00;;;;;;5096819;28;20477;-85
2022/01/02 15:59:56;;;;;;;326.70;179.38;;;307.50;2304.00;;;;;;5096726;28;20023;-87
2022/01/02 16:02:25;;;;;;;481.58;257.73;;;307.30;2304.00;;;;;;5096215;28;20412;-85
2022/01/02 16:08:36;;;;;;;172.23;100.13;;;307.30;2304.00;;;;;;5115000;28;20033;-86
2022/01/02 16:11:12;;;;;;;164.00;97.18;;;307.30;2304.00;;;;;;5096724;28;20015;-85
2022/01/02 16:45:53;;;;;;;122.28;78.85;;;282.20;2278.40;;;;;;4975780;28;20027;-89
2022/01/02 16:49:18;;;;;;;151.63;102.85;;;282.20;2278.40;;;;;;4974064;28;20093;-87
2022/01/02 16:52:19;;;;;;;233.52;160.27;;;282.10;2278.40;;;;;;4975014;28;20411;-89
2022/01/02 16:55:30;;;;;;;;;;;;;;;;;;;;;
2022/01/02 16:58:21;;;;;;;237.27;167.15;;;281.80;2278.40;;;;;;4966328;28;20090;-89
2022/01/02 17:01:36;;;;;;;247.00;171.00;;;281.70;2278.40;;;;;;4947284;28;20039;-92
2022/01/02 17:18:19;;;;;;;71.63;43.80;;;256.80;2252.80;;;;;;4853215;29;20101;-91
2022/01/02 17:21:05;;;;;;;;;;;;;;;;;;;;;
2022/01/02 17:24:38;;;;;;;;;;;;;;;;;;;;;
2022/01/02 18:10:01;;;;;;;176.43;122.45;;;231.00;2252.80;;;;;;4771738;30;20405;-89
2022/01/02 18:13:25;;;;;;;166.65;116.65;;;230.90;2252.80;;;;;;4771512;30;20032;-89
2022/01/02 18:16:56;;;;;;;205.65;141.15;;;230.80;2252.80;;;;;;4824949;29;20109;-90
2022/01/02 18:20:33;;;;;;;282.42;194.32;;;230.80;2252.80;;;;;;4746728;30;20036;-90
2022/01/02 18:26:43;;;;;;;231.82;158.82;;;230.70;2252.80;;;;;;4638520;30;20075;-87
2022/01/02 18:30:06;;;;;;;248.05;177.15;;;205.20;2252.80;;;;;;4721357;30;20032;-87
2022/01/02 18:33:45;;;;;;;324.95;233.57;;;230.60;2252.80;;;;;;4727361;30;20032;-88
2022/01/02 18:37:25;;;;;;;261.33;184.38;;;230.40;2252.80;;;;;;4708613;30;20036;-89
2022/01/02 21:00:15;;;;;;;310.70;210.60;;;179.40;2252.80;;;;;;4958745;29;20062;-88
2022/01/02 21:07:13;;;;;;;362.52;233.93;;;179.50;2252.80;;;;;;4982323;28;20534;-86
2022/01/02 21:39:25;;;;;;;203.48;138.10;;;154.30;2252.80;;;;;;4907421;29;20453;-86
2022/01/02 21:49:50;;;;;;;241.52;161.32;;;154.20;2252.80;;;;;;4927865;29;20031;-87
2022/01/02 22:14:14;;;;;;;164.90;110.35;;;153.90;2252.80;;;;;;4941222;29;20566;-85
2022/01/02 22:30:36;;;;;;;263.98;173.50;;;154.00;2252.80;;;;;;4984387;28;20026;-85
2022/01/02 23:10:58;;;;;;;126.25;78.65;;;128.70;2252.80;;;;;;4966994;28;20154;-85
2022/01/02 23:38:56;;;;;;;148.55;94.85;;;128.30;2252.80;;;;;;4885891;29;20024;-84
2022/01/02 23:45:44;;;;;;;289.00;167.75;;;128.20;2252.80;;;;;;4888843;29;20046;-86
2022/01/02 23:48:56;;;;;;;419.40;213.18;;;128.40;2252.80;;;;;;4815271;29;20038;-83
2022/01/02 23:59:22;;;;;;;219.93;133.80;;;128.10;2252.80;;;;;;4854013;29;20058;-84
